sensor_id;sensor_type;location;lat;lon;timestamp;P1;durP1;ratioP1;P2;durP2;ratioP2
31061;SDS011;17724;53.546;9.974;2023-08-06T00:03:46;5.20;;;1.90;;
31061;SDS011;17724;53.546;9.974;2023-08-06T00:07:47;5.60;;;2.30;;
31061;SDS011;17724;53.546;9.974;2023-08-06T00:11:48;5.53;;;1.90;;
31061;SDS011;17724;53.546;9.974;2023-08-06T00:15:48;9.70;;;2.47;;
31061;SDS011;17724;53.546;9.974;2023-08-06T00:19:49;5.63;;;2.20;;
31061;SDS011;17724;53.546;9.974;2023-08-06T00:23:49;5.53;;;2.33;;
31061;SDS011;17724;53.546;9.974;2023-08-06T00:27:50;5.20;;;2.17;;
31061;SDS011;17724;53.546;9.974;2023-08-06T00:31:50;7.80;;;2.20;;
31061;SDS011;17724;53.546;9.974;2023-08-06T00:35:51;4.93;;;2.03;;
31061;SDS011;17724;53.546;9.974;2023-08-06T00:39:51;5.10;;;2.30;;
31061;SDS011;17724;53.546;9.974;2023-08-06T00:43:52;5.40;;;2.10;;
31061;SDS011;17724;53.546;9.974;2023-08-06T00:47:52;5.43;;;2.47;;
31061;SDS011;17724;53.546;9.974;2023-08-06T00:51:53;6.10;;;2.60;;
31061;SDS011;17724;53.546;9.974;2023-08-06T00:55:55;4.90;;;2.13;;
31061;SDS011;17724;53.546;9.974;2023-08-06T00:59:56;5.93;;;2.83;;
31061;SDS011;17724;53.546;9.974;2023-08-06T01:03:56;24.13;;;3.40;;
31061;SDS011;17724;53.546;9.974;2023-08-06T01:08:03;5.67;;;2.60;;
31061;SDS011;17724;53.546;9.974;2023-08-06T01:12:10;5.87;;;2.97;;
31061;SDS011;17724;53.546;9.974;2023-08-06T01:16:46;5.10;;;2.30;;
31061;SDS011;17724;53.546;9.974;2023-08-06T01:20:47;5.10;;;2.00;;
31061;SDS011;17724;53.546;9.974;2023-08-06T01:24:47;7.50;;;2.40;;
31061;SDS011;17724;53.546;9.974;2023-08-06T01:32:50;5.63;;;2.60;;
31061;SDS011;17724;53.546;9.974;2023-08-06T01:36:56;6.40;;;2.50;;
31061;SDS011;17724;53.546;9.974;2023-08-06T01:40:58;5.77;;;2.20;;
31061;SDS011;17724;53.546;9.974;2023-08-06T01:44:58;7.13;;;3.10;;
31061;SDS011;17724;53.546;9.974;2023-08-06T01:49:01;5.30;;;2.70;;
31061;SDS011;17724;53.546;9.974;2023-08-06T01:53:01;5.30;;;2.43;;
31061;SDS011;17724;53.546;9.974;2023-08-06T01:57:02;5.90;;;2.40;;
31061;SDS011;17724;53.546;9.974;2023-08-06T02:01:02;6.10;;;2.70;;
31061;SDS011;17724;53.546;9.974;2023-08-06T02:05:03;6.40;;;2.60;;
31061;SDS011;17724;53.546;9.974;2023-08-06T02:09:04;6.97;;;2.90;;
31061;SDS011;17724;53.546;9.974;2023-08-06T02:13:04;6.70;;;2.63;;
31061;SDS011;17724;53.546;9.974;2023-08-06T02:17:05;5.50;;;2.53;;
31061;SDS011;17724;53.546;9.974;2023-08-06T02:21:05;5.90;;;2.83;;
31061;SDS011;17724;53.546;9.974;2023-08-06T02:25:06;6.40;;;3.10;;
31061;SDS011;17724;53.546;9.974;2023-08-06T02:29:07;5.60;;;2.87;;
31061;SDS011;17724;53.546;9.974;2023-08-06T02:33:07;7.40;;;3.60;;
31061;SDS011;17724;53.546;9.974;2023-08-06T02:37:08;6.17;;;3.47;;
31061;SDS011;17724;53.546;9.974;2023-08-06T02:41:08;6.20;;;3.50;;
31061;SDS011;17724;53.546;9.974;2023-08-06T02:45:09;6.63;;;3.70;;
31061;SDS011;17724;53.546;9.974;2023-08-06T02:49:10;6.60;;;3.80;;
31061;SDS011;17724;53.546;9.974;2023-08-06T02:53:11;7.93;;;3.27;;
31061;SDS011;17724;53.546;9.974;2023-08-06T02:57:12;7.83;;;3.60;;
31061;SDS011;17724;53.546;9.974;2023-08-06T03:01:13;7.00;;;3.60;;
31061;SDS011;17724;53.546;9.974;2023-08-06T03:05:20;8.63;;;4.40;;
31061;SDS011;17724;53.546;9.974;2023-08-06T03:09:23;6.27;;;3.30;;
31061;SDS011;17724;53.546;9.974;2023-08-06T03:13:25;6.03;;;3.53;;
31061;SDS011;17724;53.546;9.974;2023-08-06T03:17:26;6.63;;;2.90;;
31061;SDS011;17724;53.546;9.974;2023-08-06T03:21:27;6.37;;;3.50;;
31061;SDS011;17724;53.546;9.974;2023-08-06T03:25:28;5.70;;;3.30;;
31061;SDS011;17724;53.546;9.974;2023-08-06T03:29:29;6.27;;;3.60;;
31061;SDS011;17724;53.546;9.974;2023-08-06T03:33:33;7.03;;;2.90;;
31061;SDS011;17724;53.546;9.974;2023-08-06T03:37:34;6.47;;;3.03;;
31061;SDS011;17724;53.546;9.974;2023-08-06T03:41:35;5.60;;;3.07;;
31061;SDS011;17724;53.546;9.974;2023-08-06T03:45:36;9.10;;;3.27;;
31061;SDS011;17724;53.546;9.974;2023-08-06T03:49:37;6.40;;;3.00;;
31061;SDS011;17724;53.546;9.974;2023-08-06T03:53:38;6.40;;;3.53;;
31061;SDS011;17724;53.546;9.974;2023-08-06T03:57:39;6.50;;;3.53;;
31061;SDS011;17724;53.546;9.974;2023-08-06T04:01:40;6.90;;;3.53;;
31061;SDS011;17724;53.546;9.974;2023-08-06T04:05:40;6.73;;;3.00;;
31061;SDS011;17724;53.546;9.974;2023-08-06T04:13:55;6.87;;;2.70;;
31061;SDS011;17724;53.546;9.974;2023-08-06T04:17:55;7.60;;;3.50;;
31061;SDS011;17724;53.546;9.974;2023-08-06T04:21:57;6.90;;;3.87;;
31061;SDS011;17724;53.546;9.974;2023-08-06T04:25:57;6.67;;;3.60;;
31061;SDS011;17724;53.546;9.974;2023-08-06T04:30:01;5.97;;;3.47;;
31061;SDS011;17724;53.546;9.974;2023-08-06T04:34:01;7.33;;;3.70;;
31061;SDS011;17724;53.546;9.974;2023-08-06T04:38:03;7.33;;;3.57;;
31061;SDS011;17724;53.546;9.974;2023-08-06T04:42:04;7.17;;;4.20;;
31061;SDS011;17724;53.546;9.974;2023-08-06T04:46:05;6.87;;;3.60;;
31061;SDS011;17724;53.546;9.974;2023-08-06T04:50:06;8.10;;;3.70;;
31061;SDS011;17724;53.546;9.974;2023-08-06T04:54:07;6.83;;;3.07;;
31061;SDS011;17724;53.546;9.974;2023-08-06T04:58:08;7.30;;;3.53;;
31061;SDS011;17724;53.546;9.974;2023-08-06T05:02:10;8.13;;;3.37;;
31061;SDS011;17724;53.546;9.974;2023-08-06T05:06:10;8.53;;;3.80;;
31061;SDS011;17724;53.546;9.974;2023-08-06T05:10:11;7.53;;;4.17;;
31061;SDS011;17724;53.546;9.974;2023-08-06T05:14:11;6.47;;;3.30;;
31061;SDS011;17724;53.546;9.974;2023-08-06T05:18:12;7.20;;;3.63;;
31061;SDS011;17724;53.546;9.974;2023-08-06T05:22:12;5.93;;;3.40;;
31061;SDS011;17724;53.546;9.974;2023-08-06T05:26:13;6.47;;;4.00;;
31061;SDS011;17724;53.546;9.974;2023-08-06T05:30:16;7.87;;;4.23;;
31061;SDS011;17724;53.546;9.974;2023-08-06T05:34:16;7.40;;;3.90;;
31061;SDS011;17724;53.546;9.974;2023-08-06T05:38:17;7.40;;;4.07;;
31061;SDS011;17724;53.546;9.974;2023-08-06T05:42:17;7.37;;;3.63;;
31061;SDS011;17724;53.546;9.974;2023-08-06T05:46:18;6.93;;;3.80;;
31061;SDS011;17724;53.546;9.974;2023-08-06T05:50:18;7.50;;;4.27;;
31061;SDS011;17724;53.546;9.974;2023-08-06T05:54:19;7.83;;;4.30;;
31061;SDS011;17724;53.546;9.974;2023-08-06T05:58:19;11.80;;;3.80;;
31061;SDS011;17724;53.546;9.974;2023-08-06T06:02:20;8.70;;;4.90;;
31061;SDS011;17724;53.546;9.974;2023-08-06T06:06:20;8.67;;;3.77;;
31061;SDS011;17724;53.546;9.974;2023-08-06T06:10:21;8.00;;;3.53;;
31061;SDS011;17724;53.546;9.974;2023-08-06T06:14:21;7.87;;;4.07;;
31061;SDS011;17724;53.546;9.974;2023-08-06T06:18:22;7.00;;;4.03;;
31061;SDS011;17724;53.546;9.974;2023-08-06T06:22:22;8.20;;;4.30;;
31061;SDS011;17724;53.546;9.974;2023-08-06T06:26:23;9.57;;;4.80;;
31061;SDS011;17724;53.546;9.974;2023-08-06T06:30:23;10.07;;;4.87;;
31061;SDS011;17724;53.546;9.974;2023-08-06T06:34:24;9.33;;;4.90;;
31061;SDS011;17724;53.546;9.974;2023-08-06T06:38:24;8.67;;;5.20;;
31061;SDS011;17724;53.546;9.974;2023-08-06T06:42:25;7.50;;;4.77;;
31061;SDS011;17724;53.546;9.974;2023-08-06T06:46:32;7.70;;;4.47;;
31061;SDS011;17724;53.546;9.974;2023-08-06T06:50:32;7.07;;;4.13;;
31061;SDS011;17724;53.546;9.974;2023-08-06T06:54:33;9.10;;;5.40;;
31061;SDS011;17724;53.546;9.974;2023-08-06T06:58:33;9.00;;;5.47;;
31061;SDS011;17724;53.546;9.974;2023-08-06T07:02:34;12.00;;;5.33;;
31061;SDS011;17724;53.546;9.974;2023-08-06T07:06:34;7.93;;;4.27;;
31061;SDS011;17724;53.546;9.974;2023-08-06T07:10:35;9.57;;;5.50;;
31061;SDS011;17724;53.546;9.974;2023-08-06T07:14:35;7.93;;;5.27;;
31061;SDS011;17724;53.546;9.974;2023-08-06T07:18:36;8.10;;;5.17;;
31061;SDS011;17724;53.546;9.974;2023-08-06T07:22:37;11.10;;;5.03;;
31061;SDS011;17724;53.546;9.974;2023-08-06T07:26:38;9.17;;;5.17;;
31061;SDS011;17724;53.546;9.974;2023-08-06T07:30:39;7.47;;;4.70;;
31061;SDS011;17724;53.546;9.974;2023-08-06T07:34:40;7.77;;;4.57;;
31061;SDS011;17724;53.546;9.974;2023-08-06T07:38:41;9.33;;;5.30;;
31061;SDS011;17724;53.546;9.974;2023-08-06T07:42:42;9.60;;;5.37;;
31061;SDS011;17724;53.546;9.974;2023-08-06T07:46:42;9.07;;;5.10;;
31061;SDS011;17724;53.546;9.974;2023-08-06T07:50:43;8.77;;;4.90;;
31061;SDS011;17724;53.546;9.974;2023-08-06T07:54:50;9.00;;;4.60;;
31061;SDS011;17724;53.546;9.974;2023-08-06T07:58:50;9.07;;;5.33;;
31061;SDS011;17724;53.546;9.974;2023-08-06T08:02:51;8.53;;;5.27;;
31061;SDS011;17724;53.546;9.974;2023-08-06T08:06:52;8.67;;;5.50;;
31061;SDS011;17724;53.546;9.974;2023-08-06T08:10:53;10.90;;;6.27;;
31061;SDS011;17724;53.546;9.974;2023-08-06T08:14:55;8.73;;;5.90;;
31061;SDS011;17724;53.546;9.974;2023-08-06T08:18:55;8.70;;;5.67;;
31061;SDS011;17724;53.546;9.974;2023-08-06T08:22:56;8.70;;;4.87;;
31061;SDS011;17724;53.546;9.974;2023-08-06T08:26:57;9.03;;;5.63;;
31061;SDS011;17724;53.546;9.974;2023-08-06T08:30:58;10.27;;;5.77;;
31061;SDS011;17724;53.546;9.974;2023-08-06T08:34:59;9.20;;;5.33;;
31061;SDS011;17724;53.546;9.974;2023-08-06T08:39:00;9.87;;;5.90;;
31061;SDS011;17724;53.546;9.974;2023-08-06T08:43:00;8.93;;;4.60;;
31061;SDS011;17724;53.546;9.974;2023-08-06T08:47:02;7.93;;;5.00;;
31061;SDS011;17724;53.546;9.974;2023-08-06T08:51:04;8.50;;;5.13;;
31061;SDS011;17724;53.546;9.974;2023-08-06T08:55:06;9.03;;;5.43;;
31061;SDS011;17724;53.546;9.974;2023-08-06T08:59:09;9.47;;;5.37;;
31061;SDS011;17724;53.546;9.974;2023-08-06T09:03:10;14.10;;;6.20;;
31061;SDS011;17724;53.546;9.974;2023-08-06T09:07:11;8.93;;;5.17;;
31061;SDS011;17724;53.546;9.974;2023-08-06T09:11:15;8.37;;;5.00;;
31061;SDS011;17724;53.546;9.974;2023-08-06T09:15:17;9.30;;;5.90;;
31061;SDS011;17724;53.546;9.974;2023-08-06T09:19:18;10.77;;;5.83;;
31061;SDS011;17724;53.546;9.974;2023-08-06T09:23:18;9.77;;;5.30;;
31061;SDS011;17724;53.546;9.974;2023-08-06T09:27:20;7.47;;;5.00;;
31061;SDS011;17724;53.546;9.974;2023-08-06T09:31:22;8.70;;;5.70;;
31061;SDS011;17724;53.546;9.974;2023-08-06T09:35:23;8.63;;;5.13;;
31061;SDS011;17724;53.546;9.974;2023-08-06T09:39:27;10.50;;;5.57;;
31061;SDS011;17724;53.546;9.974;2023-08-06T09:43:29;9.93;;;7.07;;
31061;SDS011;17724;53.546;9.974;2023-08-06T09:47:30;13.20;;;10.80;;
31061;SDS011;17724;53.546;9.974;2023-08-06T09:51:30;8.00;;;6.60;;
31061;SDS011;17724;53.546;9.974;2023-08-06T09:55:31;7.10;;;5.30;;
31061;SDS011;17724;53.546;9.974;2023-08-06T09:59:33;10.00;;;7.60;;
31061;SDS011;17724;53.546;9.974;2023-08-06T10:03:34;8.33;;;5.20;;
31061;SDS011;17724;53.546;9.974;2023-08-06T10:07:36;10.00;;;5.33;;
31061;SDS011;17724;53.546;9.974;2023-08-06T10:11:39;8.10;;;5.47;;
31061;SDS011;17724;53.546;9.974;2023-08-06T10:15:40;8.73;;;5.20;;
31061;SDS011;17724;53.546;9.974;2023-08-06T10:19:42;10.73;;;6.63;;
31061;SDS011;17724;53.546;9.974;2023-08-06T10:23:43;9.77;;;6.77;;
31061;SDS011;17724;53.546;9.974;2023-08-06T10:31:53;9.13;;;5.50;;
31061;SDS011;17724;53.546;9.974;2023-08-06T10:35:55;8.87;;;5.57;;
31061;SDS011;17724;53.546;9.974;2023-08-06T10:40:01;11.23;;;7.30;;
31061;SDS011;17724;53.546;9.974;2023-08-06T10:44:06;9.80;;;5.90;;
31061;SDS011;17724;53.546;9.974;2023-08-06T10:48:10;8.50;;;5.00;;
31061;SDS011;17724;53.546;9.974;2023-08-06T10:52:11;7.77;;;4.77;;
31061;SDS011;17724;53.546;9.974;2023-08-06T10:56:19;9.13;;;7.23;;
31061;SDS011;17724;53.546;9.974;2023-08-06T11:00:22;9.13;;;5.80;;
31061;SDS011;17724;53.546;9.974;2023-08-06T11:04:24;9.60;;;5.43;;
31061;SDS011;17724;53.546;9.974;2023-08-06T11:08:28;28.97;;;21.47;;
31061;SDS011;17724;53.546;9.974;2023-08-06T11:12:34;85.13;;;76.33;;
31061;SDS011;17724;53.546;9.974;2023-08-06T11:16:35;21.47;;;19.13;;
31061;SDS011;17724;53.546;9.974;2023-08-06T11:20:36;35.57;;;31.77;;
31061;SDS011;17724;53.546;9.974;2023-08-06T11:24:37;15.47;;;13.40;;
31061;SDS011;17724;53.546;9.974;2023-08-06T11:28:38;27.60;;;24.40;;
31061;SDS011;17724;53.546;9.974;2023-08-06T11:32:45;39.80;;;36.03;;
31061;SDS011;17724;53.546;9.974;2023-08-06T11:36:47;22.23;;;19.70;;
31061;SDS011;17724;53.546;9.974;2023-08-06T11:40:47;28.27;;;25.67;;
31061;SDS011;17724;53.546;9.974;2023-08-06T11:44:48;13.43;;;12.03;;
31061;SDS011;17724;53.546;9.974;2023-08-06T11:48:52;17.67;;;14.10;;
31061;SDS011;17724;53.546;9.974;2023-08-06T11:52:58;18.50;;;14.90;;
31061;SDS011;17724;53.546;9.974;2023-08-06T11:57:00;10.80;;;7.17;;
31061;SDS011;17724;53.546;9.974;2023-08-06T12:01:02;14.53;;;10.20;;
31061;SDS011;17724;53.546;9.974;2023-08-06T12:05:04;16.53;;;13.70;;
31061;SDS011;17724;53.546;9.974;2023-08-06T12:09:10;14.37;;;12.27;;
31061;SDS011;17724;53.546;9.974;2023-08-06T12:13:10;17.93;;;14.50;;
31061;SDS011;17724;53.546;9.974;2023-08-06T12:17:13;31.30;;;26.13;;
31061;SDS011;17724;53.546;9.974;2023-08-06T12:21:13;78.30;;;70.13;;
31061;SDS011;17724;53.546;9.974;2023-08-06T12:25:14;13.47;;;10.73;;
31061;SDS011;17724;53.546;9.974;2023-08-06T12:29:14;15.60;;;10.53;;
31061;SDS011;17724;53.546;9.974;2023-08-06T12:33:15;27.73;;;24.80;;
31061;SDS011;17724;53.546;9.974;2023-08-06T12:37:16;33.10;;;28.77;;
31061;SDS011;17724;53.546;9.974;2023-08-06T12:41:17;14.60;;;13.20;;
31061;SDS011;17724;53.546;9.974;2023-08-06T12:45:19;27.43;;;24.60;;
31061;SDS011;17724;53.546;9.974;2023-08-06T12:49:21;18.10;;;16.03;;
31061;SDS011;17724;53.546;9.974;2023-08-06T12:53:22;18.30;;;15.87;;
31061;SDS011;17724;53.546;9.974;2023-08-06T12:57:23;14.90;;;10.90;;
31061;SDS011;17724;53.546;9.974;2023-08-06T13:01:23;22.80;;;20.43;;
31061;SDS011;17724;53.546;9.974;2023-08-06T13:05:24;19.27;;;17.03;;
31061;SDS011;17724;53.546;9.974;2023-08-06T13:09:24;17.97;;;14.73;;
31061;SDS011;17724;53.546;9.974;2023-08-06T13:13:26;13.43;;;10.70;;
31061;SDS011;17724;53.546;9.974;2023-08-06T13:17:27;11.00;;;6.77;;
31061;SDS011;17724;53.546;9.974;2023-08-06T13:21:31;18.57;;;14.17;;
31061;SDS011;17724;53.546;9.974;2023-08-06T13:25:35;9.83;;;7.17;;
31061;SDS011;17724;53.546;9.974;2023-08-06T13:29:37;13.13;;;10.57;;
31061;SDS011;17724;53.546;9.974;2023-08-06T13:33:37;13.40;;;10.43;;
31061;SDS011;17724;53.546;9.974;2023-08-06T13:37:38;60.50;;;54.37;;
31061;SDS011;17724;53.546;9.974;2023-08-06T13:41:39;30.30;;;26.97;;
31061;SDS011;17724;53.546;9.974;2023-08-06T13:45:40;37.27;;;33.23;;
31061;SDS011;17724;53.546;9.974;2023-08-06T13:49:41;21.93;;;19.40;;
31061;SDS011;17724;53.546;9.974;2023-08-06T13:53:42;19.67;;;17.57;;
31061;SDS011;17724;53.546;9.974;2023-08-06T13:57:43;15.23;;;11.53;;
31061;SDS011;17724;53.546;9.974;2023-08-06T14:01:43;16.93;;;13.20;;
31061;SDS011;17724;53.546;9.974;2023-08-06T14:05:44;18.60;;;16.53;;
31061;SDS011;17724;53.546;9.974;2023-08-06T14:09:44;13.30;;;11.87;;
31061;SDS011;17724;53.546;9.974;2023-08-06T14:13:45;13.13;;;10.20;;
31061;SDS011;17724;53.546;9.974;2023-08-06T14:17:46;13.43;;;10.77;;
31061;SDS011;17724;53.546;9.974;2023-08-06T14:21:46;58.43;;;38.50;;
31061;SDS011;17724;53.546;9.974;2023-08-06T14:25:46;12.90;;;9.63;;
31061;SDS011;17724;53.546;9.974;2023-08-06T14:29:47;15.07;;;10.60;;
31061;SDS011;17724;53.546;9.974;2023-08-06T14:33:47;12.53;;;9.03;;
31061;SDS011;17724;53.546;9.974;2023-08-06T14:37:48;14.70;;;11.50;;
31061;SDS011;17724;53.546;9.974;2023-08-06T14:41:48;17.37;;;14.40;;
31061;SDS011;17724;53.546;9.974;2023-08-06T14:45:49;10.63;;;8.33;;
31061;SDS011;17724;53.546;9.974;2023-08-06T14:49:49;7.40;;;4.90;;
31061;SDS011;17724;53.546;9.974;2023-08-06T14:53:51;11.10;;;6.77;;
31061;SDS011;17724;53.546;9.974;2023-08-06T14:57:51;10.17;;;5.73;;
31061;SDS011;17724;53.546;9.974;2023-08-06T15:01:52;34.73;;;31.43;;
31061;SDS011;17724;53.546;9.974;2023-08-06T15:05:53;12.57;;;8.53;;
31061;SDS011;17724;53.546;9.974;2023-08-06T15:09:54;15.43;;;11.00;;
31061;SDS011;17724;53.546;9.974;2023-08-06T15:13:55;17.80;;;12.87;;
31061;SDS011;17724;53.546;9.974;2023-08-06T15:17:56;13.80;;;8.77;;
31061;SDS011;17724;53.546;9.974;2023-08-06T15:21:57;17.43;;;14.30;;
31061;SDS011;17724;53.546;9.974;2023-08-06T15:25:58;12.40;;;6.77;;
31061;SDS011;17724;53.546;9.974;2023-08-06T15:29:58;11.67;;;7.80;;
31061;SDS011;17724;53.546;9.974;2023-08-06T15:33:59;14.07;;;8.70;;
31061;SDS011;17724;53.546;9.974;2023-08-06T15:37:59;10.67;;;6.40;;
31061;SDS011;17724;53.546;9.974;2023-08-06T15:42:00;12.27;;;8.63;;
31061;SDS011;17724;53.546;9.974;2023-08-06T15:46:00;18.03;;;10.40;;
31061;SDS011;17724;53.546;9.974;2023-08-06T15:50:01;12.77;;;8.83;;
31061;SDS011;17724;53.546;9.974;2023-08-06T15:54:01;9.03;;;6.30;;
31061;SDS011;17724;53.546;9.974;2023-08-06T15:58:03;10.10;;;5.60;;
31061;SDS011;17724;53.546;9.974;2023-08-06T16:02:05;13.90;;;9.33;;
31061;SDS011;17724;53.546;9.974;2023-08-06T16:06:07;17.93;;;16.00;;
31061;SDS011;17724;53.546;9.974;2023-08-06T16:10:08;34.00;;;30.33;;
31061;SDS011;17724;53.546;9.974;2023-08-06T16:14:08;22.87;;;16.83;;
31061;SDS011;17724;53.546;9.974;2023-08-06T16:18:09;21.27;;;18.87;;
31061;SDS011;17724;53.546;9.974;2023-08-06T16:22:10;12.10;;;8.80;;
31061;SDS011;17724;53.546;9.974;2023-08-06T16:26:11;11.57;;;7.20;;
31061;SDS011;17724;53.546;9.974;2023-08-06T16:30:11;14.80;;;8.73;;
31061;SDS011;17724;53.546;9.974;2023-08-06T16:34:12;18.70;;;14.13;;
31061;SDS011;17724;53.546;9.974;2023-08-06T16:38:13;19.67;;;11.77;;
31061;SDS011;17724;53.546;9.974;2023-08-06T16:42:15;12.93;;;9.10;;
31061;SDS011;17724;53.546;9.974;2023-08-06T16:46:16;18.23;;;16.00;;
31061;SDS011;17724;53.546;9.974;2023-08-06T16:50:16;49.57;;;44.17;;
31061;SDS011;17724;53.546;9.974;2023-08-06T16:54:17;46.10;;;38.23;;
31061;SDS011;17724;53.546;9.974;2023-08-06T16:58:17;43.30;;;38.83;;
31061;SDS011;17724;53.546;9.974;2023-08-06T17:02:18;23.87;;;21.33;;
31061;SDS011;17724;53.546;9.974;2023-08-06T17:06:18;12.20;;;9.37;;
31061;SDS011;17724;53.546;9.974;2023-08-06T17:10:19;42.07;;;37.77;;
31061;SDS011;17724;53.546;9.974;2023-08-06T17:14:20;78.53;;;69.37;;
31061;SDS011;17724;53.546;9.974;2023-08-06T17:18:20;25.53;;;20.00;;
31061;SDS011;17724;53.546;9.974;2023-08-06T17:22:21;34.97;;;31.30;;
31061;SDS011;17724;53.546;9.974;2023-08-06T17:26:22;16.53;;;13.60;;
31061;SDS011;17724;53.546;9.974;2023-08-06T17:30:22;49.07;;;41.20;;
31061;SDS011;17724;53.546;9.974;2023-08-06T17:34:23;35.83;;;32.03;;
31061;SDS011;17724;53.546;9.974;2023-08-06T17:38:23;60.23;;;51.13;;
31061;SDS011;17724;53.546;9.974;2023-08-06T17:42:24;53.47;;;48.20;;
31061;SDS011;17724;53.546;9.974;2023-08-06T17:46:24;29.87;;;25.57;;
31061;SDS011;17724;53.546;9.974;2023-08-06T17:50:25;70.13;;;63.07;;
31061;SDS011;17724;53.546;9.974;2023-08-06T17:54:25;21.57;;;14.17;;
31061;SDS011;17724;53.546;9.974;2023-08-06T17:58:26;69.07;;;61.27;;
31061;SDS011;17724;53.546;9.974;2023-08-06T18:02:26;100.70;;;85.17;;
31061;SDS011;17724;53.546;9.974;2023-08-06T18:06:27;80.23;;;71.53;;
31061;SDS011;17724;53.546;9.974;2023-08-06T18:10:27;33.77;;;29.83;;
31061;SDS011;17724;53.546;9.974;2023-08-06T18:14:28;27.37;;;24.47;;
31061;SDS011;17724;53.546;9.974;2023-08-06T18:18:28;12.07;;;9.80;;
31061;SDS011;17724;53.546;9.974;2023-08-06T18:22:29;14.80;;;11.17;;
31061;SDS011;17724;53.546;9.974;2023-08-06T18:26:30;32.20;;;27.60;;
31061;SDS011;17724;53.546;9.974;2023-08-06T18:30:31;16.73;;;11.33;;
31061;SDS011;17724;53.546;9.974;2023-08-06T18:34:33;44.73;;;40.17;;
31061;SDS011;17724;53.546;9.974;2023-08-06T18:38:34;35.13;;;31.53;;
31061;SDS011;17724;53.546;9.974;2023-08-06T18:42:35;36.33;;;30.73;;
31061;SDS011;17724;53.546;9.974;2023-08-06T18:46:36;16.93;;;12.57;;
31061;SDS011;17724;53.546;9.974;2023-08-06T18:50:36;24.40;;;21.30;;
31061;SDS011;17724;53.546;9.974;2023-08-06T18:54:37;18.87;;;12.40;;
31061;SDS011;17724;53.546;9.974;2023-08-06T18:58:38;25.93;;;21.87;;
31061;SDS011;17724;53.546;9.974;2023-08-06T19:02:39;37.70;;;34.10;;
31061;SDS011;17724;53.546;9.974;2023-08-06T19:06:39;59.10;;;48.00;;
31061;SDS011;17724;53.546;9.974;2023-08-06T19:10:40;49.93;;;36.50;;
31061;SDS011;17724;53.546;9.974;2023-08-06T19:14:41;36.37;;;30.30;;
31061;SDS011;17724;53.546;9.974;2023-08-06T19:18:41;40.30;;;29.63;;
31061;SDS011;17724;53.546;9.974;2023-08-06T19:22:42;47.90;;;42.03;;
31061;SDS011;17724;53.546;9.974;2023-08-06T19:26:43;65.20;;;54.77;;
31061;SDS011;17724;53.546;9.974;2023-08-06T19:30:44;27.73;;;24.00;;
31061;SDS011;17724;53.546;9.974;2023-08-06T19:34:44;12.17;;;9.73;;
31061;SDS011;17724;53.546;9.974;2023-08-06T19:38:45;13.03;;;8.60;;
31061;SDS011;17724;53.546;9.974;2023-08-06T19:42:45;15.20;;;11.13;;
31061;SDS011;17724;53.546;9.974;2023-08-06T19:46:46;17.03;;;11.70;;
31061;SDS011;17724;53.546;9.974;2023-08-06T19:50:53;63.10;;;56.20;;
31061;SDS011;17724;53.546;9.974;2023-08-06T19:55:00;48.73;;;43.70;;
31061;SDS011;17724;53.546;9.974;2023-08-06T19:59:01;29.33;;;24.13;;
31061;SDS011;17724;53.546;9.974;2023-08-06T20:03:03;40.83;;;31.17;;
31061;SDS011;17724;53.546;9.974;2023-08-06T20:07:03;58.93;;;46.50;;
31061;SDS011;17724;53.546;9.974;2023-08-06T20:11:04;91.77;;;78.50;;
31061;SDS011;17724;53.546;9.974;2023-08-06T20:15:05;50.40;;;44.30;;
31061;SDS011;17724;53.546;9.974;2023-08-06T20:19:06;36.93;;;31.50;;
31061;SDS011;17724;53.546;9.974;2023-08-06T20:23:06;26.43;;;21.80;;
31061;SDS011;17724;53.546;9.974;2023-08-06T20:27:07;31.43;;;26.50;;
31061;SDS011;17724;53.546;9.974;2023-08-06T20:31:07;17.30;;;13.90;;
31061;SDS011;17724;53.546;9.974;2023-08-06T20:35:08;36.70;;;29.30;;
31061;SDS011;17724;53.546;9.974;2023-08-06T20:39:09;21.83;;;14.93;;
31061;SDS011;17724;53.546;9.974;2023-08-06T20:43:10;17.37;;;11.67;;
31061;SDS011;17724;53.546;9.974;2023-08-06T20:47:11;8.10;;;4.00;;
31061;SDS011;17724;53.546;9.974;2023-08-06T20:51:11;10.30;;;6.10;;
31061;SDS011;17724;53.546;9.974;2023-08-06T20:55:12;5.83;;;3.23;;
31061;SDS011;17724;53.546;9.974;2023-08-06T20:59:12;6.83;;;3.17;;
31061;SDS011;17724;53.546;9.974;2023-08-06T21:03:13;6.03;;;3.13;;
31061;SDS011;17724;53.546;9.974;2023-08-06T21:07:14;6.70;;;3.30;;
31061;SDS011;17724;53.546;9.974;2023-08-06T21:11:15;8.23;;;3.20;;
31061;SDS011;17724;53.546;9.974;2023-08-06T21:15:16;6.77;;;3.47;;
31061;SDS011;17724;53.546;9.974;2023-08-06T21:19:16;8.00;;;3.40;;
31061;SDS011;17724;53.546;9.974;2023-08-06T21:23:17;6.43;;;3.27;;
31061;SDS011;17724;53.546;9.974;2023-08-06T21:27:17;6.40;;;2.87;;
31061;SDS011;17724;53.546;9.974;2023-08-06T21:31:18;5.80;;;3.13;;
31061;SDS011;17724;53.546;9.974;2023-08-06T21:35:18;6.77;;;3.50;;
31061;SDS011;17724;53.546;9.974;2023-08-06T21:39:19;6.10;;;3.50;;
31061;SDS011;17724;53.546;9.974;2023-08-06T21:43:19;6.77;;;3.90;;
31061;SDS011;17724;53.546;9.974;2023-08-06T21:47:20;6.63;;;3.47;;
31061;SDS011;17724;53.546;9.974;2023-08-06T21:51:20;6.80;;;3.77;;
31061;SDS011;17724;53.546;9.974;2023-08-06T21:55:21;6.93;;;3.17;;
31061;SDS011;17724;53.546;9.974;2023-08-06T21:59:21;9.37;;;2.83;;
31061;SDS011;17724;53.546;9.974;2023-08-06T22:03:22;7.07;;;3.03;;
31061;SDS011;17724;53.546;9.974;2023-08-06T22:07:22;8.13;;;3.13;;
31061;SDS011;17724;53.546;9.974;2023-08-06T22:11:23;5.73;;;3.20;;
31061;SDS011;17724;53.546;9.974;2023-08-06T22:15:23;6.10;;;2.80;;
31061;SDS011;17724;53.546;9.974;2023-08-06T22:19:24;5.97;;;2.37;;
31061;SDS011;17724;53.546;9.974;2023-08-06T22:23:24;5.90;;;2.83;;
31061;SDS011;17724;53.546;9.974;2023-08-06T22:27:25;7.00;;;2.90;;
31061;SDS011;17724;53.546;9.974;2023-08-06T22:31:26;7.50;;;3.00;;
31061;SDS011;17724;53.546;9.974;2023-08-06T22:35:26;6.13;;;2.47;;
31061;SDS011;17724;53.546;9.974;2023-08-06T22:39:27;6.00;;;2.37;;
31061;SDS011;17724;53.546;9.974;2023-08-06T22:43:27;7.60;;;2.50;;
31061;SDS011;17724;53.546;9.974;2023-08-06T22:47:28;6.17;;;2.40;;
31061;SDS011;17724;53.546;9.974;2023-08-06T22:51:28;8.10;;;2.43;;
31061;SDS011;17724;53.546;9.974;2023-08-06T22:55:28;6.10;;;2.47;;
31061;SDS011;17724;53.546;9.974;2023-08-06T22:59:29;6.53;;;2.53;;
31061;SDS011;17724;53.546;9.974;2023-08-06T23:03:29;5.80;;;2.73;;
31061;SDS011;17724;53.546;9.974;2023-08-06T23:07:30;6.83;;;3.20;;
31061;SDS011;17724;53.546;9.974;2023-08-06T23:11:30;5.70;;;2.30;;
31061;SDS011;17724;53.546;9.974;2023-08-06T23:15:31;6.40;;;2.37;;
31061;SDS011;17724;53.546;9.974;2023-08-06T23:19:31;7.57;;;2.60;;
31061;SDS011;17724;53.546;9.974;2023-08-06T23:23:32;6.10;;;2.50;;
31061;SDS011;17724;53.546;9.974;2023-08-06T23:27:32;5.80;;;2.20;;
31061;SDS011;17724;53.546;9.974;2023-08-06T23:31:33;6.10;;;2.30;;
31061;SDS011;17724;53.546;9.974;2023-08-06T23:35:33;5.67;;;2.37;;
31061;SDS011;17724;53.546;9.974;2023-08-06T23:39:34;6.00;;;2.13;;
31061;SDS011;17724;53.546;9.974;2023-08-06T23:43:34;7.17;;;2.10;;
31061;SDS011;17724;53.546;9.974;2023-08-06T23:47:34;5.90;;;2.03;;
31061;SDS011;17724;53.546;9.974;2023-08-06T23:51:35;5.43;;;1.93;;
31061;SDS011;17724;53.546;9.974;2023-08-06T23:55:36;8.00;;;2.47;;
31061;SDS011;17724;53.546;9.974;2023-08-06T23:59:36;7.57;;;2.43;;
